Date,TemperatureHighF,TemperatureAvgF,TemperatureLowF,DewpointHighF,DewpointAvgF,DewpointLowF,HumidityHigh,HumidityAvg,HumidityLow,PressureMaxIn,PressureMinIn,WindSpeedMaxMPH,WindSpeedAvgMPH,GustSpeedMaxMPH,PrecipitationSumIn
2013-7-1,77.4,73.0,68.5,73.4,69.4,66.2,98,88,70,29.53,29.35,0,0,0,0.35
2013-7-2,77.2,74.5,72.0,71.6,67.9,64.4,90,81,66,29.71,29.50,0,0,0,0.35
2013-7-3,79.9,74.0,70.9,75.2,70.4,66.2,96,89,66,29.74,29.68,0,0,0,0.72
2013-7-4,84.9,77.1,71.8,77.0,71.9,66.2,98,84,54,29.77,29.68,0,0,0,0.43
2013-7-5,82.6,76.0,72.1,77.0,72.2,66.2,98,88,60,29.80,29.71,0,0,0,0.04
2013-7-6,83.1,76.3,71.8,75.2,71.2,64.4,98,85,57,29.77,29.68,0,0,0,0.04
2013-7-7,83.7,76.7,73.4,73.4,71.8,66.2,97,86,58,29.74,29.65,0,0,0,0.04
2013-7-8,85.8,77.2,72.9,73.4,69.8,64.4,97,79,50,29.74,29.68,0,0,0,0.04
2013-7-9,87.8,76.6,0.0,75.2,69.6,62.6,96,73,43,29.74,29.62,0,0,0,0.20
2013-7-10,82.0,74.4,0.0,73.4,70.6,66.2,98,82,62,29.68,29.53,0,0,0,0.20
2013-7-11,87.4,76.3,0.0,71.6,68.5,60.8,96,78,43,29.56,29.44,0,0,0,0.20
2013-7-12,80.6,73.9,70.7,75.2,70.7,60.8,98,89,67,29.53,29.44,0,0,0,1.05
2013-7-13,77.0,73.0,70.2,73.4,68.8,62.6,96,86,74,29.62,29.53,0,0,0,0.08
2013-7-14,80.6,73.1,0.0,75.2,72.2,66.2,98,92,67,30.36,29.62,1,0,4,0.79
2013-7-15,89.7,77.5,72.0,76.7,73.3,71.2,98,88,60,30.41,30.34,2,0,10,0.00
2013-7-16,94.8,80.0,70.8,74.7,71.0,66.2,99,77,43,30.43,30.35,2,0,8,0.00
2013-7-17,96.5,77.8,70.3,75.5,71.6,66.4,98,84,46,30.38,30.23,6,0,19,0.38
2013-7-18,93.0,79.3,68.7,75.6,72.0,68.2,99,80,53,30.33,30.19,2,1,7,2.66
2013-7-19,95.9,80.0,72.1,73.9,71.3,63.6,95,77,37,30.26,30.13,5,1,15,0.00
2013-7-20,86.0,78.4,73.6,73.9,72.2,70.4,93,82,65,30.21,30.08,4,2,14,0.00
2013-7-21,88.8,78.8,74.4,76.0,73.5,72.0,93,84,62,30.18,30.07,4,1,12,0.00
2013-7-22,87.8,78.4,71.6,74.0,72.2,70.4,96,82,60,30.16,30.02,3,1,11,0.00
2013-7-23,93.3,81.2,74.3,74.7,72.2,69.1,92,76,47,30.06,29.93,4,1,11,0.00
2013-7-24,95.8,79.0,71.4,76.3,72.1,68.8,96,81,47,29.97,29.88,5,1,16,0.00
2013-7-25,95.3,79.5,69.8,75.0,71.0,68.6,97,77,45,30.13,29.92,2,0,7,0.00
2013-7-26,90.8,78.5,71.6,77.9,71.6,66.6,97,80,51,30.21,30.12,4,1,12,0.17
2013-7-27,87.2,77.8,73.8,78.0,73.4,70.0,96,87,60,30.17,30.02,4,2,12,0.06
2013-7-28,92.8,80.1,71.2,73.2,70.9,67.7,98,76,46,30.15,30.06,2,1,8,0.00
2013-7-29,90.6,79.6,72.5,75.3,72.9,67.9,96,81,55,30.28,30.14,4,1,13,0.00
2013-7-30,91.6,79.7,70.9,76.2,73.1,69.7,97,82,53,30.31,30.24,3,0,8,0.00
2013-7-31,82.8,76.1,71.6,77.2,73.6,69.4,98,92,78,30.27,30.16,3,0,9,0.90